sensor_id;sensor_type;location;lat;lon;timestamp;temperature;humidity
680;DHT22;322;48.846;9.230;2023-06-24T00:00:14;15.50;99.90
680;DHT22;322;48.846;9.230;2023-06-24T00:02:42;15.40;99.90
680;DHT22;322;48.846;9.230;2023-06-24T00:05:12;15.30;99.90
680;DHT22;322;48.846;9.230;2023-06-24T00:07:40;15.30;99.90
680;DHT22;322;48.846;9.230;2023-06-24T00:10:13;15.30;99.90
680;DHT22;322;48.846;9.230;2023-06-24T00:12:44;15.20;99.90
680;DHT22;322;48.846;9.230;2023-06-24T00:15:14;15.10;99.90
680;DHT22;322;48.846;9.230;2023-06-24T00:17:42;15.20;99.90
680;DHT22;322;48.846;9.230;2023-06-24T00:20:11;15.30;99.90
680;DHT22;322;48.846;9.230;2023-06-24T00:22:41;15.30;99.90
680;DHT22;322;48.846;9.230;2023-06-24T00:25:11;15.10;99.90
680;DHT22;322;48.846;9.230;2023-06-24T00:27:39;15.10;99.90
680;DHT22;322;48.846;9.230;2023-06-24T00:30:08;14.90;99.90
680;DHT22;322;48.846;9.230;2023-06-24T00:32:38;14.80;99.90
680;DHT22;322;48.846;9.230;2023-06-24T00:35:06;14.80;99.90
680;DHT22;322;48.846;9.230;2023-06-24T00:37:34;14.80;99.90
680;DHT22;322;48.846;9.230;2023-06-24T00:40:03;14.70;99.90
680;DHT22;322;48.846;9.230;2023-06-24T00:42:33;14.70;99.90
680;DHT22;322;48.846;9.230;2023-06-24T00:45:01;14.60;99.90
680;DHT22;322;48.846;9.230;2023-06-24T00:47:31;14.50;99.90
680;DHT22;322;48.846;9.230;2023-06-24T00:50:03;14.60;99.90
680;DHT22;322;48.846;9.230;2023-06-24T00:52:31;14.60;99.90
680;DHT22;322;48.846;9.230;2023-06-24T00:55:00;14.60;99.90
680;DHT22;322;48.846;9.230;2023-06-24T00:57:30;14.60;99.90
680;DHT22;322;48.846;9.230;2023-06-24T00:59:59;14.60;99.90
680;DHT22;322;48.846;9.230;2023-06-24T01:02:27;14.60;99.90
680;DHT22;322;48.846;9.230;2023-06-24T01:04:55;14.60;99.90
680;DHT22;322;48.846;9.230;2023-06-24T01:07:25;14.60;99.90
680;DHT22;322;48.846;9.230;2023-06-24T01:09:54;14.60;99.90
680;DHT22;322;48.846;9.230;2023-06-24T01:12:22;14.60;99.90
680;DHT22;322;48.846;9.230;2023-06-24T01:14:50;14.70;99.90
680;DHT22;322;48.846;9.230;2023-06-24T01:17:23;14.70;99.90
680;DHT22;322;48.846;9.230;2023-06-24T01:20:03;14.80;99.90
680;DHT22;322;48.846;9.230;2023-06-24T01:23:06;14.70;99.90
680;DHT22;322;48.846;9.230;2023-06-24T01:29:02;14.80;99.90
680;DHT22;322;48.846;9.230;2023-06-24T01:31:40;14.80;99.90
680;DHT22;322;48.846;9.230;2023-06-24T01:34:16;14.80;99.90
680;DHT22;322;48.846;9.230;2023-06-24T01:36:51;14.70;99.90
680;DHT22;322;48.846;9.230;2023-06-24T01:39:22;14.60;99.90
680;DHT22;322;48.846;9.230;2023-06-24T01:41:56;14.50;99.90
680;DHT22;322;48.846;9.230;2023-06-24T01:44:28;14.50;99.90
680;DHT22;322;48.846;9.230;2023-06-24T01:46:59;14.40;99.90
680;DHT22;322;48.846;9.230;2023-06-24T01:49:31;14.30;99.90
680;DHT22;322;48.846;9.230;2023-06-24T01:52:01;14.20;99.90
680;DHT22;322;48.846;9.230;2023-06-24T01:54:31;14.20;99.90
680;DHT22;322;48.846;9.230;2023-06-24T01:56:59;14.20;99.90
680;DHT22;322;48.846;9.230;2023-06-24T01:59:30;14.20;99.90
680;DHT22;322;48.846;9.230;2023-06-24T02:02:00;14.10;99.90
680;DHT22;322;48.846;9.230;2023-06-24T02:04:30;14.00;99.90
680;DHT22;322;48.846;9.230;2023-06-24T02:07:00;14.00;99.90
680;DHT22;322;48.846;9.230;2023-06-24T02:09:29;14.00;99.90
680;DHT22;322;48.846;9.230;2023-06-24T02:12:01;13.90;99.90
680;DHT22;322;48.846;9.230;2023-06-24T02:14:30;13.80;99.90
680;DHT22;322;48.846;9.230;2023-06-24T02:17:04;13.70;99.90
680;DHT22;322;48.846;9.230;2023-06-24T02:19:34;13.60;99.90
680;DHT22;322;48.846;9.230;2023-06-24T02:22:03;13.60;99.90
680;DHT22;322;48.846;9.230;2023-06-24T02:24:37;13.70;99.90
680;DHT22;322;48.846;9.230;2023-06-24T02:27:07;13.70;99.90
680;DHT22;322;48.846;9.230;2023-06-24T02:29:36;13.80;99.90
680;DHT22;322;48.846;9.230;2023-06-24T02:32:08;13.70;99.90
680;DHT22;322;48.846;9.230;2023-06-24T02:34:36;13.60;99.90
680;DHT22;322;48.846;9.230;2023-06-24T02:37:04;13.60;99.90
680;DHT22;322;48.846;9.230;2023-06-24T02:39:33;13.70;99.90
680;DHT22;322;48.846;9.230;2023-06-24T02:42:02;13.80;99.90
680;DHT22;322;48.846;9.230;2023-06-24T02:44:30;13.70;99.90
680;DHT22;322;48.846;9.230;2023-06-24T02:46:59;13.70;99.90
680;DHT22;322;48.846;9.230;2023-06-24T02:49:28;13.60;99.90
680;DHT22;322;48.846;9.230;2023-06-24T02:51:57;13.50;99.90
680;DHT22;322;48.846;9.230;2023-06-24T02:54:25;13.60;99.90
680;DHT22;322;48.846;9.230;2023-06-24T02:56:54;13.60;99.90
680;DHT22;322;48.846;9.230;2023-06-24T02:59:27;13.60;99.90
680;DHT22;322;48.846;9.230;2023-06-24T03:01:55;13.70;99.90
680;DHT22;322;48.846;9.230;2023-06-24T03:04:24;13.60;99.90
680;DHT22;322;48.846;9.230;2023-06-24T03:06:54;13.50;99.90
680;DHT22;322;48.846;9.230;2023-06-24T03:09:23;13.50;99.90
680;DHT22;322;48.846;9.230;2023-06-24T03:11:51;13.50;99.90
680;DHT22;322;48.846;9.230;2023-06-24T03:14:20;13.40;99.90
680;DHT22;322;48.846;9.230;2023-06-24T03:16:48;13.40;99.90
680;DHT22;322;48.846;9.230;2023-06-24T03:19:16;13.40;99.90
680;DHT22;322;48.846;9.230;2023-06-24T03:21:44;13.30;99.90
680;DHT22;322;48.846;9.230;2023-06-24T03:24:13;13.30;99.90
680;DHT22;322;48.846;9.230;2023-06-24T03:26:41;13.30;99.90
680;DHT22;322;48.846;9.230;2023-06-24T03:29:09;13.30;99.90
680;DHT22;322;48.846;9.230;2023-06-24T03:31:38;13.40;99.90
680;DHT22;322;48.846;9.230;2023-06-24T03:34:10;13.30;99.90
680;DHT22;322;48.846;9.230;2023-06-24T03:36:38;13.30;99.90
680;DHT22;322;48.846;9.230;2023-06-24T03:39:07;13.20;99.90
680;DHT22;322;48.846;9.230;2023-06-24T03:41:36;13.30;99.90
680;DHT22;322;48.846;9.230;2023-06-24T03:44:05;13.40;99.90
680;DHT22;322;48.846;9.230;2023-06-24T03:46:33;13.40;99.90
680;DHT22;322;48.846;9.230;2023-06-24T03:49:01;13.50;99.90
680;DHT22;322;48.846;9.230;2023-06-24T03:51:29;13.50;99.90
680;DHT22;322;48.846;9.230;2023-06-24T03:53:57;13.60;99.90
680;DHT22;322;48.846;9.230;2023-06-24T03:56:25;13.70;99.90
680;DHT22;322;48.846;9.230;2023-06-24T03:58:55;13.70;99.90
680;DHT22;322;48.846;9.230;2023-06-24T04:01:23;13.70;99.90
680;DHT22;322;48.846;9.230;2023-06-24T04:03:51;13.70;99.90
680;DHT22;322;48.846;9.230;2023-06-24T04:06:19;13.80;99.90
680;DHT22;322;48.846;9.230;2023-06-24T04:08:47;13.90;99.90
680;DHT22;322;48.846;9.230;2023-06-24T04:11:15;13.90;99.90
680;DHT22;322;48.846;9.230;2023-06-24T04:13:44;14.00;99.90
680;DHT22;322;48.846;9.230;2023-06-24T04:16:14;14.10;99.90
680;DHT22;322;48.846;9.230;2023-06-24T04:18:42;14.30;99.90
680;DHT22;322;48.846;9.230;2023-06-24T04:21:10;14.40;99.90
680;DHT22;322;48.846;9.230;2023-06-24T04:23:38;14.50;99.90
680;DHT22;322;48.846;9.230;2023-06-24T04:26:06;14.60;99.90
680;DHT22;322;48.846;9.230;2023-06-24T04:28:34;14.70;99.90
680;DHT22;322;48.846;9.230;2023-06-24T04:31:04;14.60;99.90
680;DHT22;322;48.846;9.230;2023-06-24T04:33:33;14.60;99.90
680;DHT22;322;48.846;9.230;2023-06-24T04:36:01;14.60;99.90
680;DHT22;322;48.846;9.230;2023-06-24T04:38:29;14.90;99.90
680;DHT22;322;48.846;9.230;2023-06-24T04:40:57;15.00;99.90
680;DHT22;322;48.846;9.230;2023-06-24T04:43:26;15.10;99.90
680;DHT22;322;48.846;9.230;2023-06-24T04:45:54;15.30;99.90
680;DHT22;322;48.846;9.230;2023-06-24T04:48:23;15.30;99.90
680;DHT22;322;48.846;9.230;2023-06-24T04:50:53;15.40;99.90
680;DHT22;322;48.846;9.230;2023-06-24T04:53:21;15.40;99.90
680;DHT22;322;48.846;9.230;2023-06-24T04:55:49;15.40;99.90
680;DHT22;322;48.846;9.230;2023-06-24T04:58:17;15.40;99.90
680;DHT22;322;48.846;9.230;2023-06-24T05:00:45;15.40;99.90
680;DHT22;322;48.846;9.230;2023-06-24T05:03:14;15.40;99.90
680;DHT22;322;48.846;9.230;2023-06-24T05:05:42;15.50;99.90
680;DHT22;322;48.846;9.230;2023-06-24T05:08:12;15.60;99.90
680;DHT22;322;48.846;9.230;2023-06-24T05:10:40;15.60;99.90
680;DHT22;322;48.846;9.230;2023-06-24T05:13:08;15.60;99.90
680;DHT22;322;48.846;9.230;2023-06-24T05:15:35;15.70;99.90
680;DHT22;322;48.846;9.230;2023-06-24T05:18:04;15.80;99.90
680;DHT22;322;48.846;9.230;2023-06-24T05:20:32;15.90;99.90
680;DHT22;322;48.846;9.230;2023-06-24T05:23:00;15.90;99.90
680;DHT22;322;48.846;9.230;2023-06-24T05:25:29;15.90;99.90
680;DHT22;322;48.846;9.230;2023-06-24T05:27:58;16.00;99.90
680;DHT22;322;48.846;9.230;2023-06-24T05:30:26;16.10;99.90
680;DHT22;322;48.846;9.230;2023-06-24T05:32:54;16.20;99.90
680;DHT22;322;48.846;9.230;2023-06-24T05:35:22;16.30;99.90
680;DHT22;322;48.846;9.230;2023-06-24T05:37:50;16.50;99.90
680;DHT22;322;48.846;9.230;2023-06-24T05:40:18;16.60;99.90
680;DHT22;322;48.846;9.230;2023-06-24T05:42:47;16.70;99.90
680;DHT22;322;48.846;9.230;2023-06-24T05:45:15;16.80;99.90
680;DHT22;322;48.846;9.230;2023-06-24T05:47:43;17.00;99.90
680;DHT22;322;48.846;9.230;2023-06-24T05:50:13;17.10;99.90
680;DHT22;322;48.846;9.230;2023-06-24T05:52:41;17.20;99.90
680;DHT22;322;48.846;9.230;2023-06-24T05:55:09;17.30;99.90
680;DHT22;322;48.846;9.230;2023-06-24T05:57:40;17.30;99.90
680;DHT22;322;48.846;9.230;2023-06-24T06:00:10;17.40;99.90
680;DHT22;322;48.846;9.230;2023-06-24T06:02:39;17.60;99.90
680;DHT22;322;48.846;9.230;2023-06-24T06:05:07;17.60;99.90
680;DHT22;322;48.846;9.230;2023-06-24T06:07:35;17.70;99.90
680;DHT22;322;48.846;9.230;2023-06-24T06:10:05;17.80;99.90
680;DHT22;322;48.846;9.230;2023-06-24T06:12:34;17.90;99.90
680;DHT22;322;48.846;9.230;2023-06-24T06:15:02;18.10;99.40
680;DHT22;322;48.846;9.230;2023-06-24T06:17:32;18.20;98.80
680;DHT22;322;48.846;9.230;2023-06-24T06:20:00;18.40;98.30
680;DHT22;322;48.846;9.230;2023-06-24T06:22:28;18.50;97.40
680;DHT22;322;48.846;9.230;2023-06-24T06:24:56;18.60;97.50
680;DHT22;322;48.846;9.230;2023-06-24T06:27:24;18.70;97.60
680;DHT22;322;48.846;9.230;2023-06-24T06:29:52;18.80;97.10
680;DHT22;322;48.846;9.230;2023-06-24T06:32:20;18.90;96.10
680;DHT22;322;48.846;9.230;2023-06-24T06:34:49;19.10;95.30
680;DHT22;322;48.846;9.230;2023-06-24T06:37:17;19.10;94.60
680;DHT22;322;48.846;9.230;2023-06-24T06:39:45;19.20;94.10
680;DHT22;322;48.846;9.230;2023-06-24T06:42:13;19.40;93.00
680;DHT22;322;48.846;9.230;2023-06-24T06:44:42;19.40;93.50
680;DHT22;322;48.846;9.230;2023-06-24T06:47:11;19.60;93.00
680;DHT22;322;48.846;9.230;2023-06-24T06:49:39;19.70;92.40
680;DHT22;322;48.846;9.230;2023-06-24T06:52:08;19.70;92.70
680;DHT22;322;48.846;9.230;2023-06-24T06:54:36;19.70;92.80
680;DHT22;322;48.846;9.230;2023-06-24T06:57:05;19.80;91.80
680;DHT22;322;48.846;9.230;2023-06-24T06:59:33;20.00;91.80
680;DHT22;322;48.846;9.230;2023-06-24T07:02:01;20.20;91.30
680;DHT22;322;48.846;9.230;2023-06-24T07:04:30;20.20;90.90
680;DHT22;322;48.846;9.230;2023-06-24T07:06:59;20.30;90.50
680;DHT22;322;48.846;9.230;2023-06-24T07:09:29;20.40;89.40
680;DHT22;322;48.846;9.230;2023-06-24T07:11:57;20.40;87.60
680;DHT22;322;48.846;9.230;2023-06-24T07:14:25;20.60;88.20
680;DHT22;322;48.846;9.230;2023-06-24T07:16:53;20.70;89.00
680;DHT22;322;48.846;9.230;2023-06-24T07:19:21;20.80;87.00
680;DHT22;322;48.846;9.230;2023-06-24T07:21:49;20.90;83.90
680;DHT22;322;48.846;9.230;2023-06-24T07:24:17;21.00;84.70
680;DHT22;322;48.846;9.230;2023-06-24T07:26:46;21.20;84.20
680;DHT22;322;48.846;9.230;2023-06-24T07:29:14;21.20;82.00
680;DHT22;322;48.846;9.230;2023-06-24T07:31:42;21.30;80.90
680;DHT22;322;48.846;9.230;2023-06-24T07:34:11;21.50;80.70
680;DHT22;322;48.846;9.230;2023-06-24T07:36:39;21.60;80.80
680;DHT22;322;48.846;9.230;2023-06-24T07:39:07;21.70;80.30
680;DHT22;322;48.846;9.230;2023-06-24T07:41:35;21.90;79.10
680;DHT22;322;48.846;9.230;2023-06-24T07:44:05;22.10;80.00
680;DHT22;322;48.846;9.230;2023-06-24T07:46:33;22.20;77.60
680;DHT22;322;48.846;9.230;2023-06-24T07:49:01;22.30;75.50
680;DHT22;322;48.846;9.230;2023-06-24T07:51:29;22.40;77.40
680;DHT22;322;48.846;9.230;2023-06-24T07:53:57;22.60;73.70
680;DHT22;322;48.846;9.230;2023-06-24T07:56:25;22.70;72.50
680;DHT22;322;48.846;9.230;2023-06-24T07:58:53;22.80;73.20
680;DHT22;322;48.846;9.230;2023-06-24T08:01:23;22.80;74.00
680;DHT22;322;48.846;9.230;2023-06-24T08:03:51;23.00;71.50
680;DHT22;322;48.846;9.230;2023-06-24T08:06:19;23.10;69.70
680;DHT22;322;48.846;9.230;2023-06-24T08:08:47;23.20;70.00
680;DHT22;322;48.846;9.230;2023-06-24T08:11:15;23.30;70.20
680;DHT22;322;48.846;9.230;2023-06-24T08:13:44;23.50;65.10
680;DHT22;322;48.846;9.230;2023-06-24T08:16:12;23.50;67.00
680;DHT22;322;48.846;9.230;2023-06-24T08:18:41;23.50;67.90
680;DHT22;322;48.846;9.230;2023-06-24T08:21:10;23.60;65.50
680;DHT22;322;48.846;9.230;2023-06-24T08:23:38;23.70;64.90
680;DHT22;322;48.846;9.230;2023-06-24T08:26:07;23.80;61.70
680;DHT22;322;48.846;9.230;2023-06-24T08:28:43;23.90;60.80
680;DHT22;322;48.846;9.230;2023-06-24T08:31:13;23.90;61.00
680;DHT22;322;48.846;9.230;2023-06-24T08:33:43;24.00;62.70
680;DHT22;322;48.846;9.230;2023-06-24T08:36:12;24.20;61.20
680;DHT22;322;48.846;9.230;2023-06-24T08:38:40;24.50;61.20
680;DHT22;322;48.846;9.230;2023-06-24T08:41:08;24.50;58.20
680;DHT22;322;48.846;9.230;2023-06-24T08:43:37;24.40;59.60
680;DHT22;322;48.846;9.230;2023-06-24T08:46:05;24.50;60.80
680;DHT22;322;48.846;9.230;2023-06-24T08:48:34;24.60;58.80
680;DHT22;322;48.846;9.230;2023-06-24T08:51:09;24.80;59.30
680;DHT22;322;48.846;9.230;2023-06-24T08:53:42;24.80;57.30
680;DHT22;322;48.846;9.230;2023-06-24T08:56:11;24.90;58.10
680;DHT22;322;48.846;9.230;2023-06-24T08:58:40;24.90;54.90
680;DHT22;322;48.846;9.230;2023-06-24T09:01:08;24.80;53.20
680;DHT22;322;48.846;9.230;2023-06-24T09:03:36;24.70;55.40
680;DHT22;322;48.846;9.230;2023-06-24T09:06:05;24.80;56.70
680;DHT22;322;48.846;9.230;2023-06-24T09:08:34;25.00;56.10
680;DHT22;322;48.846;9.230;2023-06-24T09:11:08;25.00;53.90
680;DHT22;322;48.846;9.230;2023-06-24T09:13:36;25.30;54.40
680;DHT22;322;48.846;9.230;2023-06-24T09:16:14;25.40;53.80
680;DHT22;322;48.846;9.230;2023-06-24T09:18:47;25.60;54.10
680;DHT22;322;48.846;9.230;2023-06-24T09:21:22;25.90;52.40
680;DHT22;322;48.846;9.230;2023-06-24T09:23:54;26.00;52.40
680;DHT22;322;48.846;9.230;2023-06-24T09:26:23;26.10;50.00
680;DHT22;322;48.846;9.230;2023-06-24T09:28:52;26.10;49.70
680;DHT22;322;48.846;9.230;2023-06-24T09:31:20;25.70;49.30
680;DHT22;322;48.846;9.230;2023-06-24T09:33:50;25.70;50.80
680;DHT22;322;48.846;9.230;2023-06-24T09:36:18;25.60;50.00
680;DHT22;322;48.846;9.230;2023-06-24T09:38:46;25.50;51.40
680;DHT22;322;48.846;9.230;2023-06-24T09:41:17;25.40;49.90
680;DHT22;322;48.846;9.230;2023-06-24T09:43:45;25.20;52.10
680;DHT22;322;48.846;9.230;2023-06-24T09:46:14;25.10;53.50
680;DHT22;322;48.846;9.230;2023-06-24T09:48:43;25.40;49.60
680;DHT22;322;48.846;9.230;2023-06-24T09:51:12;25.70;49.60
680;DHT22;322;48.846;9.230;2023-06-24T09:53:41;26.20;50.10
680;DHT22;322;48.846;9.230;2023-06-24T09:56:11;26.30;47.10
680;DHT22;322;48.846;9.230;2023-06-24T09:58:44;26.30;46.90
680;DHT22;322;48.846;9.230;2023-06-24T10:01:12;26.60;46.40
680;DHT22;322;48.846;9.230;2023-06-24T10:03:41;27.00;44.80
680;DHT22;322;48.846;9.230;2023-06-24T10:06:09;27.40;42.30
680;DHT22;322;48.846;9.230;2023-06-24T10:08:37;27.50;42.00
680;DHT22;322;48.846;9.230;2023-06-24T10:11:05;27.90;41.60
680;DHT22;322;48.846;9.230;2023-06-24T10:13:34;28.00;38.80
680;DHT22;322;48.846;9.230;2023-06-24T10:16:04;28.20;39.60
680;DHT22;322;48.846;9.230;2023-06-24T10:18:35;28.70;40.70
680;DHT22;322;48.846;9.230;2023-06-24T10:21:04;29.20;40.70
680;DHT22;322;48.846;9.230;2023-06-24T10:23:40;29.90;38.90
680;DHT22;322;48.846;9.230;2023-06-24T10:26:10;30.20;38.10
680;DHT22;322;48.846;9.230;2023-06-24T10:29:09;29.70;38.00
680;DHT22;322;48.846;9.230;2023-06-24T10:32:03;29.80;38.80
680;DHT22;322;48.846;9.230;2023-06-24T10:34:39;29.70;37.20
680;DHT22;322;48.846;9.230;2023-06-24T10:37:10;29.40;36.80
680;DHT22;322;48.846;9.230;2023-06-24T10:39:46;29.40;38.00
680;DHT22;322;48.846;9.230;2023-06-24T10:42:32;29.70;38.50
680;DHT22;322;48.846;9.230;2023-06-24T10:45:02;30.20;38.00
680;DHT22;322;48.846;9.230;2023-06-24T10:47:44;30.30;35.10
680;DHT22;322;48.846;9.230;2023-06-24T10:50:14;29.80;36.40
680;DHT22;322;48.846;9.230;2023-06-24T10:52:43;29.30;37.50
680;DHT22;322;48.846;9.230;2023-06-24T10:55:14;29.90;38.60
680;DHT22;322;48.846;9.230;2023-06-24T10:57:42;30.20;36.10
680;DHT22;322;48.846;9.230;2023-06-24T11:00:12;30.50;36.00
680;DHT22;322;48.846;9.230;2023-06-24T11:02:42;30.80;36.10
680;DHT22;322;48.846;9.230;2023-06-24T11:05:11;30.30;36.50
680;DHT22;322;48.846;9.230;2023-06-24T11:07:40;30.50;36.70
680;DHT22;322;48.846;9.230;2023-06-24T11:10:11;29.80;37.00
680;DHT22;322;48.846;9.230;2023-06-24T11:12:42;29.40;37.50
680;DHT22;322;48.846;9.230;2023-06-24T11:15:11;29.30;38.10
680;DHT22;322;48.846;9.230;2023-06-24T11:17:41;29.40;37.90
680;DHT22;322;48.846;9.230;2023-06-24T11:20:11;29.50;37.70
680;DHT22;322;48.846;9.230;2023-06-24T11:22:41;29.30;39.30
680;DHT22;322;48.846;9.230;2023-06-24T11:25:15;29.70;38.00
680;DHT22;322;48.846;9.230;2023-06-24T11:27:43;30.50;38.70
680;DHT22;322;48.846;9.230;2023-06-24T11:30:12;31.50;36.40
680;DHT22;322;48.846;9.230;2023-06-24T11:32:44;31.30;35.30
680;DHT22;322;48.846;9.230;2023-06-24T11:35:13;31.30;35.20
680;DHT22;322;48.846;9.230;2023-06-24T11:37:43;31.50;34.90
680;DHT22;322;48.846;9.230;2023-06-24T11:40:13;31.90;37.60
680;DHT22;322;48.846;9.230;2023-06-24T11:42:43;32.50;34.10
680;DHT22;322;48.846;9.230;2023-06-24T11:45:13;32.20;34.20
680;DHT22;322;48.846;9.230;2023-06-24T11:47:44;32.50;35.00
680;DHT22;322;48.846;9.230;2023-06-24T11:50:12;32.90;32.80
680;DHT22;322;48.846;9.230;2023-06-24T11:52:41;33.70;32.50
680;DHT22;322;48.846;9.230;2023-06-24T11:55:16;34.00;31.80
680;DHT22;322;48.846;9.230;2023-06-24T11:57:49;33.80;32.70
680;DHT22;322;48.846;9.230;2023-06-24T12:00:20;33.90;31.50
680;DHT22;322;48.846;9.230;2023-06-24T12:02:52;34.00;30.40
680;DHT22;322;48.846;9.230;2023-06-24T12:05:23;34.30;31.70
680;DHT22;322;48.846;9.230;2023-06-24T12:07:57;35.00;31.10
680;DHT22;322;48.846;9.230;2023-06-24T12:10:26;34.80;30.30
680;DHT22;322;48.846;9.230;2023-06-24T12:12:56;34.70;30.90
680;DHT22;322;48.846;9.230;2023-06-24T12:15:25;33.90;31.40
680;DHT22;322;48.846;9.230;2023-06-24T12:17:55;32.80;33.30
680;DHT22;322;48.846;9.230;2023-06-24T12:20:24;31.80;35.30
680;DHT22;322;48.846;9.230;2023-06-24T12:23:00;30.80;33.40
680;DHT22;322;48.846;9.230;2023-06-24T12:25:28;30.70;34.30
680;DHT22;322;48.846;9.230;2023-06-24T12:27:56;31.50;32.90
680;DHT22;322;48.846;9.230;2023-06-24T12:30:26;32.10;32.60
680;DHT22;322;48.846;9.230;2023-06-24T12:32:56;32.70;31.20
680;DHT22;322;48.846;9.230;2023-06-24T12:35:24;32.70;30.60
680;DHT22;322;48.846;9.230;2023-06-24T12:37:53;32.60;31.50
680;DHT22;322;48.846;9.230;2023-06-24T12:40:21;32.20;31.90
680;DHT22;322;48.846;9.230;2023-06-24T12:42:49;32.20;30.60
680;DHT22;322;48.846;9.230;2023-06-24T12:45:17;32.60;31.70
680;DHT22;322;48.846;9.230;2023-06-24T12:47:45;32.80;30.80
680;DHT22;322;48.846;9.230;2023-06-24T12:50:14;33.50;30.70
680;DHT22;322;48.846;9.230;2023-06-24T12:52:42;34.50;29.70
680;DHT22;322;48.846;9.230;2023-06-24T12:55:11;34.70;28.20
680;DHT22;322;48.846;9.230;2023-06-24T12:57:42;35.30;31.80
680;DHT22;322;48.846;9.230;2023-06-24T13:00:11;36.20;29.30
680;DHT22;322;48.846;9.230;2023-06-24T13:02:39;36.80;28.50
680;DHT22;322;48.846;9.230;2023-06-24T13:05:08;37.20;28.90
680;DHT22;322;48.846;9.230;2023-06-24T13:07:37;37.50;26.50
680;DHT22;322;48.846;9.230;2023-06-24T13:10:06;37.60;26.80
680;DHT22;322;48.846;9.230;2023-06-24T13:12:34;37.80;26.60
680;DHT22;322;48.846;9.230;2023-06-24T13:15:04;38.40;26.30
680;DHT22;322;48.846;9.230;2023-06-24T13:17:32;38.80;26.70
680;DHT22;322;48.846;9.230;2023-06-24T13:20:00;39.20;24.50
680;DHT22;322;48.846;9.230;2023-06-24T13:22:31;39.40;27.00
680;DHT22;322;48.846;9.230;2023-06-24T13:25:00;39.60;24.40
680;DHT22;322;48.846;9.230;2023-06-24T13:27:28;39.00;23.90
680;DHT22;322;48.846;9.230;2023-06-24T13:29:56;39.00;27.50
680;DHT22;322;48.846;9.230;2023-06-24T13:32:24;38.80;24.50
680;DHT22;322;48.846;9.230;2023-06-24T13:34:52;36.70;25.50
680;DHT22;322;48.846;9.230;2023-06-24T13:37:20;35.40;26.30
680;DHT22;322;48.846;9.230;2023-06-24T13:39:48;35.20;27.50
680;DHT22;322;48.846;9.230;2023-06-24T13:42:18;35.30;27.00
680;DHT22;322;48.846;9.230;2023-06-24T13:44:46;35.30;27.40
680;DHT22;322;48.846;9.230;2023-06-24T13:47:14;35.50;27.00
680;DHT22;322;48.846;9.230;2023-06-24T13:49:42;34.90;27.10
680;DHT22;322;48.846;9.230;2023-06-24T13:52:10;34.70;27.60
680;DHT22;322;48.846;9.230;2023-06-24T13:54:38;34.60;27.40
680;DHT22;322;48.846;9.230;2023-06-24T13:57:07;34.40;28.50
680;DHT22;322;48.846;9.230;2023-06-24T13:59:36;35.50;29.10
680;DHT22;322;48.846;9.230;2023-06-24T14:02:04;36.60;26.70
680;DHT22;322;48.846;9.230;2023-06-24T14:04:34;37.40;27.60
680;DHT22;322;48.846;9.230;2023-06-24T14:07:04;38.30;25.50
680;DHT22;322;48.846;9.230;2023-06-24T14:09:33;38.90;26.60
680;DHT22;322;48.846;9.230;2023-06-24T14:12:01;39.40;26.00
680;DHT22;322;48.846;9.230;2023-06-24T14:14:30;38.50;24.70
680;DHT22;322;48.846;9.230;2023-06-24T14:17:00;36.70;26.20
680;DHT22;322;48.846;9.230;2023-06-24T14:19:28;35.80;27.30
680;DHT22;322;48.846;9.230;2023-06-24T14:21:56;34.40;27.60
680;DHT22;322;48.846;9.230;2023-06-24T14:24:24;34.30;29.30
680;DHT22;322;48.846;9.230;2023-06-24T14:26:52;34.80;28.10
680;DHT22;322;48.846;9.230;2023-06-24T14:29:20;35.00;27.40
680;DHT22;322;48.846;9.230;2023-06-24T14:31:48;35.10;27.10
680;DHT22;322;48.846;9.230;2023-06-24T14:34:18;35.40;27.70
680;DHT22;322;48.846;9.230;2023-06-24T14:36:46;34.50;27.70
680;DHT22;322;48.846;9.230;2023-06-24T14:39:15;34.70;29.10
680;DHT22;322;48.846;9.230;2023-06-24T14:41:44;34.50;27.80
680;DHT22;322;48.846;9.230;2023-06-24T14:44:12;34.70;28.80
680;DHT22;322;48.846;9.230;2023-06-24T14:46:40;35.90;28.00
680;DHT22;322;48.846;9.230;2023-06-24T14:49:09;36.40;26.50
680;DHT22;322;48.846;9.230;2023-06-24T14:51:38;36.20;27.00
680;DHT22;322;48.846;9.230;2023-06-24T14:54:06;35.20;27.10
680;DHT22;322;48.846;9.230;2023-06-24T14:56:34;34.50;27.90
680;DHT22;322;48.846;9.230;2023-06-24T14:59:02;34.00;27.80
680;DHT22;322;48.846;9.230;2023-06-24T15:01:30;33.60;28.80
680;DHT22;322;48.846;9.230;2023-06-24T15:03:58;33.80;28.30
680;DHT22;322;48.846;9.230;2023-06-24T15:06:26;34.00;28.30
680;DHT22;322;48.846;9.230;2023-06-24T15:08:56;34.60;29.20
680;DHT22;322;48.846;9.230;2023-06-24T15:11:24;35.60;29.70
680;DHT22;322;48.846;9.230;2023-06-24T15:13:51;36.30;27.00
680;DHT22;322;48.846;9.230;2023-06-24T15:16:20;36.50;26.60
680;DHT22;322;48.846;9.230;2023-06-24T15:18:48;36.30;26.70
680;DHT22;322;48.846;9.230;2023-06-24T15:21:16;35.80;26.70
680;DHT22;322;48.846;9.230;2023-06-24T15:24:04;34.20;28.30
680;DHT22;322;48.846;9.230;2023-06-24T15:26:32;34.20;29.40
680;DHT22;322;48.846;9.230;2023-06-24T15:29:00;35.20;28.70
680;DHT22;322;48.846;9.230;2023-06-24T15:31:28;35.20;28.50
680;DHT22;322;48.846;9.230;2023-06-24T15:33:56;34.40;28.40
680;DHT22;322;48.846;9.230;2023-06-24T15:36:24;33.80;28.50
680;DHT22;322;48.846;9.230;2023-06-24T15:38:55;33.60;29.30
680;DHT22;322;48.846;9.230;2023-06-24T15:41:25;33.70;29.10
680;DHT22;322;48.846;9.230;2023-06-24T15:43:53;33.60;29.00
680;DHT22;322;48.846;9.230;2023-06-24T15:46:21;33.40;29.00
680;DHT22;322;48.846;9.230;2023-06-24T15:48:50;33.20;29.40
680;DHT22;322;48.846;9.230;2023-06-24T15:51:18;32.70;29.50
680;DHT22;322;48.846;9.230;2023-06-24T15:53:46;33.30;30.90
680;DHT22;322;48.846;9.230;2023-06-24T15:56:14;34.10;28.50
680;DHT22;322;48.846;9.230;2023-06-24T15:58:44;33.90;28.70
680;DHT22;322;48.846;9.230;2023-06-24T16:01:14;33.50;28.50
680;DHT22;322;48.846;9.230;2023-06-24T16:03:42;33.80;30.20
680;DHT22;322;48.846;9.230;2023-06-24T16:06:10;33.80;28.90
680;DHT22;322;48.846;9.230;2023-06-24T16:08:38;33.10;28.50
680;DHT22;322;48.846;9.230;2023-06-24T16:11:06;31.90;29.60
680;DHT22;322;48.846;9.230;2023-06-24T16:13:34;31.80;30.50
680;DHT22;322;48.846;9.230;2023-06-24T16:16:04;32.10;30.00
680;DHT22;322;48.846;9.230;2023-06-24T16:18:32;32.90;31.50
680;DHT22;322;48.846;9.230;2023-06-24T16:21:00;33.60;28.90
680;DHT22;322;48.846;9.230;2023-06-24T16:23:28;33.60;28.50
680;DHT22;322;48.846;9.230;2023-06-24T16:25:56;33.40;28.30
680;DHT22;322;48.846;9.230;2023-06-24T16:28:24;33.40;28.70
680;DHT22;322;48.846;9.230;2023-06-24T16:30:52;33.00;29.00
680;DHT22;322;48.846;9.230;2023-06-24T16:33:21;32.20;29.10
680;DHT22;322;48.846;9.230;2023-06-24T16:35:50;31.70;29.60
680;DHT22;322;48.846;9.230;2023-06-24T16:38:18;31.80;30.60
680;DHT22;322;48.846;9.230;2023-06-24T16:40:46;31.80;29.60
680;DHT22;322;48.846;9.230;2023-06-24T16:43:14;32.20;30.50
680;DHT22;322;48.846;9.230;2023-06-24T16:45:42;32.80;30.60
680;DHT22;322;48.846;9.230;2023-06-24T16:48:13;33.50;30.50
680;DHT22;322;48.846;9.230;2023-06-24T16:50:42;33.30;28.70